Bitter Lake, Washington
Current Conditions -  °F | °C
As of 6:53 AM on Friday 26 Dec 2014 (Local Time) from KPAE Reporting Station
Haze Haze  
Wind Chill: 34°   Ceiling: 300
Heat Index: 38°   Visibility: 3mi
Dew Point: 37°   Wind: 5mph
Humidity: 97%   Direction: 190°S
Pressure: 30.34"   Gusts: NA
Location:  47.7424°N, 122.371°W
Report Text: KPAE 261453Z 19004KT 3SM BR OVC003 03/03 A3034 RMK AO2 SLP278 T00330028 53005
Loading
Personal Weather Stations






























Interactive Weather Map New forecast layout! Learn more

10-Day Weather Forecast

Advertisements
Track Severe Weather on mobile